Time;durP1;ratioP1;P1;durP2;ratioP2;P2;SDS_P1;SDS_P2;PMS_P1;PMS_P2;Temp;Humidity;BMP_temperature;BMP_pressure;BME280_temperature;BME280_humidity;BME280_pressure;Samples;Min_cycle;Max_cycle;Signal;HPM_P1;HPM_P2
2023/08/05 00:00:15;;;;;;;7.20;4.70;;;;;;;19.66;99.79;99969.27;180767;1262;43990;-84
2023/08/05 00:04:38;;;;;;;6.90;5.90;;;;;;;19.55;100.00;99956.77;180724;1263;43956;-84
2023/08/05 00:08:41;;;;;;;5.20;4.30;;;;;;;19.45;100.00;99944.67;180687;1262;58316;-86
2023/08/05 00:12:47;;;;;;;4.80;4.20;;;;;;;19.37;100.00;99941.02;180785;1263;44712;-91
2023/08/05 00:34:01;;;;;;;7.30;5.00;;;;;;;19.28;100.00;99934.13;181136;1263;58126;-63
2023/08/05 00:38:04;;;;;;;6.70;4.10;;;;;;;19.31;100.00;99936.33;181132;1263;43100;-64
2023/08/05 00:42:07;;;;;;;8.80;4.40;;;;;;;19.29;100.00;99934.02;181121;1265;43663;-63
2023/08/05 00:46:11;;;;;;;14.20;7.00;;;;;;;19.32;100.00;99930.61;181138;1264;43803;-64
2023/08/05 00:50:15;;;;;;;6.80;5.70;;;;;;;19.30;100.00;99926.19;181122;1265;43090;-64
2023/08/05 00:54:18;;;;;;;9.00;5.80;;;;;;;19.26;100.00;99919.88;181204;1264;57337;-63
2023/08/05 00:58:21;;;;;;;6.20;4.90;;;;;;;19.20;100.00;99929.20;181228;1263;43170;-64
2023/08/05 01:02:24;;;;;;;4.40;4.00;;;;;;;19.21;100.00;99929.42;181147;1265;43078;-64
2023/08/05 01:06:28;;;;;;;7.70;5.00;;;;;;;19.03;100.00;99923.41;181138;1264;44818;-65
2023/08/05 01:10:31;;;;;;;7.30;5.30;;;;;;;18.80;100.00;99924.92;181091;1264;43014;-64
2023/08/05 01:14:34;;;;;;;10.40;5.00;;;;;;;18.66;100.00;99926.97;181170;1263;58038;-64
2023/08/05 01:18:39;;;;;;;9.20;5.80;;;;;;;18.61;100.00;99930.02;181151;1264;43336;-66
2023/08/05 01:22:51;;;;;;;12.10;6.40;;;;;;;18.63;100.00;99932.73;181194;1264;45183;-64
2023/08/05 01:26:55;;;;;;;8.50;5.70;;;;;;;18.53;100.00;99926.56;181001;1263;43771;-63
2023/08/05 01:31:00;;;;;;;7.90;5.60;;;;;;;18.52;100.00;99926.88;181065;1264;43731;-64
2023/08/05 01:35:06;;;;;;;11.90;6.30;;;;;;;18.58;100.00;99914.86;181026;1264;59502;-64
2023/08/05 01:39:09;;;;;;;6.50;4.90;;;;;;;18.66;100.00;99909.52;181120;1265;43666;-64
2023/08/05 01:43:12;;;;;;;10.00;6.60;;;;;;;18.69;100.00;99904.15;181150;1267;43706;-63
2023/08/05 01:47:15;;;;;;;11.90;7.30;;;;;;;18.73;100.00;99899.17;181201;1264;43810;-64
2023/08/05 01:51:18;;;;;;;6.50;4.90;;;;;;;18.73;100.00;99893.70;181096;1264;43694;-65
2023/08/05 01:55:24;;;;;;;6.50;5.90;;;;;;;18.76;100.00;99894.89;181134;1264;58876;-64
2023/08/05 01:59:27;;;;;;;7.10;5.20;;;;;;;18.79;100.00;99896.67;181080;1265;43725;-64
2023/08/05 02:03:30;;;;;;;6.10;4.80;;;;;;;18.83;100.00;99889.38;181150;1265;43651;-64
2023/08/05 02:07:34;;;;;;;11.40;5.10;;;;;;;18.92;100.00;99881.98;181177;1264;43079;-64
2023/08/05 02:11:37;;;;;;;6.00;5.40;;;;;;;18.87;100.00;99868.33;181221;1263;43777;-64
2023/08/05 02:16:34;;;;;;;6.60;4.20;;;;;;;18.66;100.00;99868.34;181127;1264;58683;-62
2023/08/05 02:20:37;;;;;;;8.90;6.70;;;;;;;18.56;100.00;99870.66;181125;1263;43752;-63
2023/08/05 02:24:40;;;;;;;8.90;5.50;;;;;;;18.49;100.00;99864.77;181218;1264;43091;-64
2023/08/05 02:28:44;;;;;;;8.80;5.30;;;;;;;18.30;100.00;99857.71;181093;1264;43449;-65
2023/08/05 02:32:47;;;;;;;10.30;6.40;;;;;;;18.23;100.00;99845.37;181082;1263;43092;-64
2023/08/05 02:36:50;;;;;;;13.50;5.60;;;;;;;18.14;100.00;99848.73;181083;1264;58033;-62
2023/08/05 02:41:07;;;;;;;11.10;5.80;;;;;;;18.07;100.00;99846.80;181105;1264;43748;-63
2023/08/05 02:45:10;;;;;;;7.50;5.10;;;;;;;18.10;100.00;99852.16;181141;1264;43816;-62
2023/08/05 02:50:03;;;;;;;6.90;5.90;;;;;;;17.97;100.00;99863.61;181164;1264;44003;-62
2023/08/05 02:54:06;;;;;;;6.70;6.00;;;;;;;17.99;100.00;99864.38;181218;1263;42990;-63
2023/08/05 02:58:32;;;;;;;11.20;5.30;;;;;;;18.05;100.00;99874.38;181190;1263;58233;-62
2023/08/05 03:02:35;;;;;;;15.80;8.00;;;;;;;18.12;100.00;99883.15;181137;1264;43692;-62
2023/08/05 03:06:39;;;;;;;6.10;5.50;;;;;;;18.22;100.00;99882.70;181167;1264;43749;-62
2023/08/05 03:10:42;;;;;;;10.10;5.20;;;;;;;18.23;100.00;99876.80;181139;1264;43445;-62
2023/08/05 03:14:45;;;;;;;5.60;5.00;;;;;;;18.28;100.00;99888.99;181159;1265;43147;-63
2023/08/05 03:18:50;;;;;;;6.40;5.30;;;;;;;18.41;100.00;99899.85;181133;1264;58379;-63
2023/08/05 03:22:54;;;;;;;5.60;4.70;;;;;;;18.41;100.00;99891.77;181173;1264;43848;-62
2023/08/05 03:26:57;;;;;;;10.60;6.10;;;;;;;18.35;100.00;99889.65;181070;1264;43212;-62
2023/08/05 03:31:00;;;;;;;7.10;5.40;;;;;;;18.28;100.00;99885.56;181101;1264;43532;-62
2023/08/05 03:35:03;;;;;;;6.60;4.40;;;;;;;18.22;100.00;99879.47;181158;1263;43820;-62
2023/08/05 03:39:06;;;;;;;7.40;6.60;;;;;;;18.23;100.00;99867.30;181219;1264;58172;-62
2023/08/05 03:43:09;;;;;;;6.50;5.80;;;;;;;18.29;100.00;99875.05;181196;1264;43623;-64
2023/08/05 03:47:12;;;;;;;7.80;5.60;;;;;;;18.25;100.00;99884.15;181220;1264;43173;-63
2023/08/05 03:51:15;;;;;;;8.70;5.40;;;;;;;18.23;100.00;99883.96;181214;1264;43732;-63
2023/08/05 03:55:19;;;;;;;6.70;5.10;;;;;;;18.23;100.00;99886.69;181183;1267;43861;-62
2023/08/05 03:59:23;;;;;;;10.80;4.50;;;;;;;18.21;100.00;99885.70;181180;1264;57925;-62
2023/08/05 04:03:26;;;;;;;8.60;5.70;;;;;;;18.17;100.00;99877.58;181143;1264;43708;-61
2023/08/05 04:07:29;;;;;;;6.70;5.40;;;;;;;18.16;100.00;99873.39;181147;1267;43739;-63
2023/08/05 04:11:33;;;;;;;4.90;4.40;;;;;;;18.21;100.00;99864.05;181128;1266;43712;-62
2023/08/05 04:15:38;;;;;;;8.30;6.00;;;;;;;18.28;100.00;99848.11;181159;1264;43107;-62
2023/08/05 04:19:43;;;;;;;8.30;7.00;;;;;;;18.40;100.00;99840.72;181157;1264;59106;-63
2023/08/05 04:43:24;;;;;;;6.40;5.10;;;;;;;18.39;100.00;99856.91;144691;1264;87451;-62
2023/08/05 05:05:08;;;;;;;7.40;5.30;;;;;;;18.84;100.00;99873.97;181031;1266;43110;-63
2023/08/05 05:09:11;;;;;;;6.20;4.50;;;;;;;18.99;100.00;99876.23;180927;1267;57271;-64
2023/08/05 05:13:14;;;;;;;7.20;4.60;;;;;;;19.12;100.00;99882.20;180965;1267;44084;-63
2023/08/05 05:17:17;;;;;;;9.00;5.70;;;;;;;19.14;100.00;99883.05;180828;1267;195821;-63
2023/08/05 05:21:20;;;;;;;5.20;4.20;;;;;;;19.17;100.00;99881.93;180976;1267;43638;-62
2023/08/05 05:25:24;;;;;;;6.20;5.30;;;;;;;19.11;100.00;99881.79;180990;1267;43763;-64
2023/08/05 05:29:30;;;;;;;10.70;5.70;;;;;;;19.11;100.00;99882.92;180923;1267;58426;-64
2023/08/05 05:33:33;;;;;;;6.20;5.10;;;;;;;19.12;100.00;99890.31;180951;1267;43852;-64
2023/08/05 05:37:36;;;;;;;6.30;5.00;;;;;;;19.03;100.00;99893.52;180947;1267;43718;-63
2023/08/05 05:41:38;;;;;;;12.50;5.90;;;;;;;18.90;100.00;99893.56;180963;1267;43347;-64
2023/08/05 05:45:42;;;;;;;6.20;4.70;;;;;;;18.82;100.00;99895.75;180943;1267;43413;-65
2023/08/05 05:49:57;;;;;;;10.70;6.30;;;;;;;18.78;100.00;99897.27;180915;1267;58500;-63
2023/08/05 05:54:00;;;;;;;6.70;5.30;;;;;;;18.81;100.00;99897.55;180930;1267;43338;-64
2023/08/05 05:58:05;;;;;;;8.40;5.80;;;;;;;18.83;100.00;99902.67;180986;1267;43043;-64
2023/08/05 06:02:08;;;;;;;7.30;5.00;;;;;;;18.77;100.00;99899.55;180875;1267;43109;-64
2023/08/05 06:06:12;;;;;;;4.80;4.30;;;;;;;18.75;100.00;99894.50;180924;1267;43132;-63
2023/08/05 06:10:15;;;;;;;6.90;5.70;;;;;;;18.73;100.00;99896.69;180939;1267;57598;-64
2023/08/05 06:14:19;;;;;;;6.70;5.60;;;;;;;18.73;100.00;99898.71;180916;1267;43790;-64
2023/08/05 06:18:27;;;;;;;10.70;6.00;;;;;;;18.76;100.00;99894.93;180937;1268;43695;-64
2023/08/05 06:22:30;;;;;;;8.00;5.30;;;;;;;18.79;100.00;99887.67;180939;1267;43827;-64
2023/08/05 06:26:33;;;;;;;7.70;4.40;;;;;;;18.79;100.00;99878.11;180897;1267;43799;-64
2023/08/05 06:30:43;;;;;;;8.30;5.00;;;;;;;18.93;100.00;99883.89;180917;1267;58097;-65
2023/08/05 06:34:47;;;;;;;5.40;4.10;;;;;;;19.07;100.00;99881.55;180949;1267;43940;-64
2023/08/05 06:38:50;;;;;;;7.60;3.80;;;;;;;19.15;100.00;99885.80;180966;1267;43145;-64
2023/08/05 06:42:53;;;;;;;4.80;3.80;;;;;;;19.21;100.00;99898.69;180868;1267;44007;-64
2023/08/05 06:46:56;;;;;;;6.70;5.00;;;;;;;19.26;100.00;99892.55;180972;1266;43633;-65
2023/08/05 06:50:59;;;;;;;6.30;4.30;;;;;;;19.30;100.00;99893.02;180905;1266;58417;-65
2023/08/05 06:55:04;;;;;;;4.80;4.10;;;;;;;19.35;100.00;99892.85;180902;1267;44032;-66
2023/08/05 06:59:09;;;;;;;5.70;4.80;;;;;;;19.37;100.00;99899.58;180902;1267;43654;-65
2023/08/05 07:03:12;;;;;;;7.80;4.00;;;;;;;19.45;100.00;99905.50;180855;1267;43730;-64
2023/08/05 07:07:43;;;;;;;7.40;4.50;;;;;;;19.54;100.00;99903.84;180933;1268;43156;-64
2023/08/05 07:11:46;;;;;;;14.70;6.40;;;;;;;19.64;100.00;99898.28;180874;1267;58279;-64
2023/08/05 07:16:02;;;;;;;8.70;5.00;;;;;;;19.71;100.00;99894.69;180944;1267;43098;-65
2023/08/05 07:20:08;;;;;;;6.90;5.30;;;;;;;19.81;100.00;99887.45;180884;1267;43068;-65
2023/08/05 07:24:39;;;;;;;8.00;5.50;;;;;;;19.87;100.00;99889.69;180888;1267;43611;-65
2023/08/05 07:28:43;;;;;;;7.20;4.90;;;;;;;19.90;100.00;99877.76;180976;1267;43773;-65
2023/08/05 07:32:46;;;;;;;8.20;5.90;;;;;;;19.82;100.00;99872.72;180942;1267;58310;-65
2023/08/05 07:36:50;;;;;;;6.70;6.00;;;;;;;19.73;100.00;99872.79;180962;1268;43253;-65
2023/08/05 07:40:56;;;;;;;6.20;5.10;;;;;;;19.67;100.00;99877.34;180880;1268;43678;-65
2023/08/05 07:45:05;;;;;;;6.60;5.40;;;;;;;19.60;100.00;99878.91;180939;1267;43732;-65
2023/08/05 07:49:11;;;;;;;9.10;5.40;;;;;;;19.56;100.00;99878.17;180948;1268;43452;-65
2023/08/05 07:53:23;;;;;;;5.00;3.80;;;;;;;19.49;100.00;99875.25;180950;1267;58559;-66
2023/08/05 07:57:26;;;;;;;6.00;5.40;;;;;;;19.45;100.00;99871.23;180852;1267;43143;-65
2023/08/05 08:01:33;;;;;;;5.70;4.90;;;;;;;19.45;100.00;99857.63;180935;1267;43900;-66
2023/08/05 08:05:37;;;;;;;5.50;4.90;;;;;;;19.49;100.00;99845.79;180943;1267;43926;-66
2023/08/05 08:09:40;;;;;;;6.80;4.80;;;;;;;19.47;100.00;99832.41;180987;1267;43846;-66
2023/08/05 08:13:43;;;;;;;6.80;5.40;;;;;;;19.43;100.00;99830.17;180872;1267;58379;-64
2023/08/05 08:18:11;;;;;;;5.80;5.30;;;;;;;19.47;100.00;99823.91;180844;1267;43195;-64
2023/08/05 08:22:15;;;;;;;5.70;5.20;;;;;;;19.53;100.00;99817.92;180975;1267;43754;-64
2023/08/05 08:27:09;;;;;;;6.10;4.10;;;;;;;19.54;100.00;99813.63;180865;1268;43253;-63
2023/08/05 08:31:12;;;;;;;5.80;5.20;;;;;;;19.53;100.00;99811.25;180935;1267;43649;-63
2023/08/05 08:35:16;;;;;;;6.70;4.40;;;;;;;19.63;100.00;99815.42;180946;1267;58126;-63
2023/08/05 08:39:19;;;;;;;5.00;4.60;;;;;;;19.72;100.00;99809.47;180932;1267;43638;-62
2023/08/05 08:43:22;;;;;;;7.10;5.50;;;;;;;19.77;100.00;99795.10;180960;1265;43086;-61
2023/08/05 08:47:26;;;;;;;6.20;4.90;;;;;;;19.86;100.00;99795.31;180950;1267;44157;-62
2023/08/05 08:51:29;;;;;;;7.10;6.00;;;;;;;19.93;100.00;99797.62;180893;1267;43404;-63
2023/08/05 08:55:58;;;;;;;8.20;5.80;;;;;;;19.96;100.00;99799.71;180914;1271;58587;-62
2023/08/05 09:00:02;;;;;;;10.30;5.50;;;;;;;19.99;100.00;99807.86;180454;1265;44120;-83
2023/08/05 09:04:08;;;;;;;7.50;6.10;;;;;;;20.09;100.00;99807.83;180620;1265;44166;-83
2023/08/05 09:08:12;;;;;;;7.10;3.80;;;;;;;20.26;100.00;99806.46;180469;1265;43773;-83
2023/08/05 09:12:16;;;;;;;6.00;5.10;;;;;;;20.48;100.00;99795.90;180506;1265;44314;-84
2023/08/05 09:16:19;;;;;;;9.30;5.70;;;;;;;20.73;100.00;99791.43;180589;1267;59569;-84
2023/08/05 09:20:24;;;;;;;6.60;5.10;;;;;;;20.90;100.00;99791.41;180577;1267;44272;-83
2023/08/05 09:24:28;;;;;;;6.60;5.30;;;;;;;21.04;100.00;99795.61;180430;1265;44346;-82
2023/08/05 09:28:33;;;;;;;6.80;5.20;;;;;;;21.14;100.00;99807.60;180488;1265;43792;-83
2023/08/05 09:32:38;;;;;;;9.50;4.90;;;;;;;21.20;100.00;99814.55;180623;1265;43856;-84
2023/08/05 09:36:42;;;;;;;7.00;3.80;;;;;;;21.15;100.00;99819.76;180568;1267;60369;-83
2023/08/05 09:40:48;;;;;;;7.80;4.60;;;;;;;21.10;100.00;99818.45;180617;1267;43777;-82
2023/08/05 09:44:58;;;;;;;4.70;4.20;;;;;;;21.10;100.00;99823.95;180459;1265;44102;-82
2023/08/05 09:49:02;;;;;;;4.70;3.90;;;;;;;21.02;100.00;99810.27;180500;1264;44052;-87
2023/08/05 09:53:09;;;;;;;5.70;4.60;;;;;;;20.91;100.00;99799.77;180600;1268;44263;-83
2023/08/05 09:57:14;;;;;;;6.60;4.70;;;;;;;20.80;100.00;99799.83;180329;1267;57936;-83
2023/08/05 10:01:18;;;;;;;6.00;5.00;;;;;;;20.68;100.00;99812.25;180285;1267;44110;-83
2023/08/05 10:05:25;;;;;;;5.30;4.40;;;;;;;20.55;100.00;99815.20;180185;1267;43807;-83
2023/08/05 10:09:30;;;;;;;5.60;4.80;;;;;;;20.49;100.00;99824.71;180203;1267;44374;-86
2023/08/05 10:13:43;;;;;;;7.30;6.00;;;;;;;20.53;100.00;99823.09;180482;1266;43852;-86
2023/08/05 10:17:48;;;;;;;7.10;6.10;;;;;;;20.60;100.00;99828.93;180340;1267;58348;-85
2023/08/05 10:21:51;;;;;;;9.00;4.40;;;;;;;20.56;100.00;99832.16;180270;1265;43565;-86
2023/08/05 10:26:03;;;;;;;9.90;5.90;;;;;;;20.48;100.00;99835.51;180484;1266;44408;-85
2023/08/05 10:30:14;;;;;;;9.00;4.80;;;;;;;20.44;100.00;99836.03;180408;1266;43881;-84
2023/08/05 10:34:18;;;;;;;7.70;5.90;;;;;;;20.26;100.00;99828.07;180456;1266;47890;-84
2023/08/05 10:38:23;;;;;;;10.80;6.50;;;;;;;20.17;100.00;99822.86;180374;1266;59605;-84
2023/08/05 10:42:29;;;;;;;8.40;6.70;;;;;;;20.12;100.00;99813.46;180527;1266;43914;-83
2023/08/05 10:46:33;;;;;;;6.90;6.20;;;;;;;20.09;100.00;99810.95;180419;1266;44293;-84
2023/08/05 10:50:38;;;;;;;9.40;5.70;;;;;;;20.03;100.00;99805.90;180255;1266;44132;-84
2023/08/05 10:54:41;;;;;;;22.00;7.90;;;;;;;20.04;100.00;99800.21;180395;1267;44023;-85
2023/08/05 10:58:49;;;;;;;9.20;6.50;;;;;;;20.09;100.00;99801.69;180688;1265;58265;-84
2023/08/05 11:03:25;;;;;;;9.00;8.00;;;;;;;20.18;100.00;99799.23;180451;1265;44211;-85
2023/08/05 11:07:30;;;;;;;8.10;6.20;;;;;;;20.23;100.00;99802.05;180548;1265;44099;-86
2023/08/05 11:11:34;;;;;;;10.10;8.60;;;;;;;20.15;100.00;99797.15;180370;1265;44035;-85
2023/08/05 11:15:41;;;;;;;9.00;6.20;;;;;;;20.18;100.00;99801.10;180506;1265;44256;-85
2023/08/05 11:19:55;;;;;;;6.30;5.20;;;;;;;20.07;100.00;99801.18;180405;1265;57949;-84
2023/08/05 11:23:59;;;;;;;8.80;6.70;;;;;;;20.06;100.00;99798.23;180392;1265;44144;-83
2023/08/05 11:28:05;;;;;;;10.30;6.30;;;;;;;20.04;100.00;99804.87;180453;1265;44148;-84
2023/08/05 11:32:08;;;;;;;11.90;7.40;;;;;;;19.81;100.00;99811.64;180466;1264;44061;-83
2023/08/05 11:36:13;;;;;;;8.90;7.50;;;;;;;19.72;100.00;99811.46;180510;1265;43765;-84
2023/08/05 11:40:17;;;;;;;9.10;6.60;;;;;;;19.63;100.00;99801.64;180463;1265;59415;-84
2023/08/05 11:44:21;;;;;;;12.00;7.60;;;;;;;19.65;100.00;99795.36;180328;1264;43841;-85
2023/08/05 11:48:25;;;;;;;12.30;8.10;;;;;;;19.67;100.00;99794.05;180388;1265;44554;-85
2023/08/05 11:52:29;;;;;;;10.80;8.20;;;;;;;19.77;100.00;99796.19;180461;1265;44146;-84
2023/08/05 11:56:50;;;;;;;19.40;8.10;;;;;;;19.82;100.00;99804.80;180593;1265;45958;31
2023/08/05 12:00:59;;;;;;;9.30;7.10;;;;;;;19.87;100.00;99801.06;158197;1261;88093;-62
2023/08/05 12:05:04;;;;;;;8.60;7.30;;;;;;;19.88;100.00;99798.23;181210;1262;43567;-63
2023/08/05 12:09:11;;;;;;;12.50;10.30;;;;;;;19.90;100.00;99800.11;181269;1262;43588;-63
2023/08/05 12:13:16;;;;;;;11.70;9.30;;;;;;;19.93;100.00;99789.73;181266;1262;45325;-62
2023/08/05 12:17:19;;;;;;;11.10;9.40;;;;;;;19.99;100.00;99785.48;181272;1262;43347;-66
2023/08/05 12:21:47;;;;;;;8.60;7.70;;;;;;;20.01;100.00;99787.52;181247;1263;57594;-62
2023/08/05 12:25:50;;;;;;;11.30;8.80;;;;;;;20.03;100.00;99785.58;181306;1262;43721;-62
2023/08/05 12:29:55;;;;;;;8.90;8.00;;;;;;;20.06;100.00;99780.79;181342;1262;43162;-62
2023/08/05 12:33:58;;;;;;;9.30;8.40;;;;;;;20.05;100.00;99787.26;181291;1262;43110;-61
2023/08/05 12:38:01;;;;;;;11.60;9.70;;;;;;;20.05;100.00;99780.77;181363;1262;43039;-63
2023/08/05 12:42:05;;;;;;;13.20;9.50;;;;;;;20.05;100.00;99774.10;181323;1262;58339;-65
2023/08/05 12:46:08;;;;;;;12.70;10.80;;;;;;;20.05;100.00;99761.65;181289;1262;43306;-62
2023/08/05 12:51:03;;;;;;;12.60;9.20;;;;;;;20.03;100.00;99753.52;181314;1262;43819;-61
2023/08/05 12:55:07;;;;;;;11.20;10.00;;;;;;;20.06;100.00;99756.33;181330;1262;43714;-63
2023/08/05 12:59:10;;;;;;;16.70;10.70;;;;;;;20.08;100.00;99755.74;181331;1262;43020;-60
2023/08/05 13:03:13;;;;;;;11.60;9.90;;;;;;;20.07;100.00;99743.75;181336;1262;57775;-58
2023/08/05 13:07:16;;;;;;;12.00;9.00;;;;;;;20.06;100.00;99737.84;181324;1262;43675;-58
2023/08/05 13:11:24;;;;;;;14.10;11.70;;;;;;;20.01;100.00;99741.85;181330;1262;43712;-57
2023/08/05 13:15:27;;;;;;;11.10;9.30;;;;;;;19.95;100.00;99743.77;181236;1262;43175;-58
2023/08/05 13:19:30;;;;;;;12.40;11.00;;;;;;;19.91;100.00;99747.65;181322;1262;43038;-58
2023/08/05 13:23:33;;;;;;;12.10;9.30;;;;;;;19.87;100.00;99743.85;181317;1262;60024;-58
2023/08/05 13:27:36;;;;;;;12.90;11.20;;;;;;;19.83;100.00;99743.60;181313;1262;43003;-57
2023/08/05 13:31:39;;;;;;;13.40;8.60;;;;;;;19.78;100.00;99739.05;181403;1262;43090;-58
2023/08/05 13:35:42;;;;;;;14.30;12.80;;;;;;;19.74;100.00;99742.08;181334;1262;43649;-58
2023/08/05 13:39:49;;;;;;;11.50;10.30;;;;;;;19.75;100.00;99740.36;181426;1262;42971;-58
2023/08/05 13:43:52;;;;;;;13.40;11.50;;;;;;;19.74;100.00;99732.89;181365;1262;58238;-58
2023/08/05 13:47:55;;;;;;;11.00;9.80;;;;;;;19.75;100.00;99725.40;181359;1262;43686;-58
2023/08/05 13:51:58;;;;;;;13.30;9.30;;;;;;;19.72;100.00;99722.42;181370;1262;43035;-58
2023/08/05 13:56:02;;;;;;;12.30;11.00;;;;;;;19.64;100.00;99713.49;181331;1262;43695;-59
2023/08/05 14:00:06;;;;;;;17.60;9.80;;;;;;;19.56;100.00;99713.09;181303;1262;43072;-58
2023/08/05 14:04:09;;;;;;;11.90;10.60;;;;;;;19.50;100.00;99715.96;181159;1264;58132;-58
2023/08/05 14:08:12;;;;;;;12.90;9.60;;;;;;;19.43;100.00;99715.63;181187;1263;43617;-58
2023/08/05 14:12:17;;;;;;;15.30;12.00;;;;;;;19.41;100.00;99723.95;181233;1267;43380;-58
2023/08/05 14:16:20;;;;;;;10.80;7.80;;;;;;;19.37;100.00;99732.19;181211;1263;43093;-58
2023/08/05 14:20:23;;;;;;;14.40;11.80;;;;;;;19.35;100.00;99743.24;181244;1263;43042;-59
2023/08/05 14:24:26;;;;;;;11.10;10.10;;;;;;;19.33;100.00;99740.08;181246;1263;58471;-59
2023/08/05 14:28:29;;;;;;;14.20;10.10;;;;;;;19.31;100.00;99732.94;181230;1263;43950;-59
2023/08/05 14:32:35;;;;;;;11.10;9.20;;;;;;;19.28;100.00;99732.92;181216;1263;43020;-58
2023/08/05 14:36:37;;;;;;;10.60;9.00;;;;;;;19.29;100.00;99732.05;181213;1263;43103;-58
2023/08/05 14:40:41;;;;;;;10.80;9.10;;;;;;;19.31;100.00;99726.34;181236;1263;43083;-58
2023/08/05 14:44:44;;;;;;;13.20;9.90;;;;;;;19.35;100.00;99709.72;181157;1263;58417;-58
2023/08/05 14:48:47;;;;;;;11.90;9.00;;;;;;;19.35;100.00;99709.02;181201;1263;43162;-59
2023/08/05 14:52:50;;;;;;;9.10;7.40;;;;;;;19.35;100.00;99709.02;181246;1263;43719;-58
2023/08/05 14:56:53;;;;;;;9.70;8.70;;;;;;;19.35;100.00;99704.08;181200;1263;44119;-58
2023/08/05 15:00:56;;;;;;;10.70;9.60;;;;;;;19.34;100.00;99695.74;181268;1262;43470;-58
2023/08/05 15:05:06;;;;;;;10.30;9.30;;;;;;;19.33;100.00;99698.09;181257;1263;58053;-58
2023/08/05 15:09:11;;;;;;;12.60;8.40;;;;;;;19.29;100.00;99682.27;181151;1263;43645;-59
2023/08/05 15:13:14;;;;;;;11.30;7.90;;;;;;;19.23;100.00;99667.49;181190;1263;44002;-58
2023/08/05 15:17:17;;;;;;;8.60;7.70;;;;;;;19.20;100.00;99670.77;181233;1263;43196;-58
2023/08/05 15:21:20;;;;;;;9.70;8.70;;;;;;;19.20;100.00;99671.27;181284;1263;43084;-58
2023/08/05 15:25:23;;;;;;;9.10;8.20;;;;;;;19.19;100.00;99662.47;181261;1263;58074;-60
2023/08/05 15:29:26;;;;;;;8.10;7.30;;;;;;;19.16;100.00;99659.05;181197;1263;43963;-60
2023/08/05 15:33:29;;;;;;;7.30;6.60;;;;;;;19.11;100.00;99655.70;181301;1263;43834;-59
2023/08/05 15:37:33;;;;;;;7.20;6.50;;;;;;;19.10;100.00;99659.42;181305;1263;43066;-60
2023/08/05 15:41:35;;;;;;;9.70;6.70;;;;;;;19.13;100.00;99656.58;181269;1264;43068;-61
2023/08/05 15:45:42;;;;;;;8.80;6.40;;;;;;;19.13;100.00;99651.70;181235;1263;58095;-60
2023/08/05 15:49:44;;;;;;;;;;;;;;;19.13;100.00;99654.71;181300;1263;43053;-61
2023/08/05 15:53:48;;;;;;;7.40;6.60;;;;;;;19.12;100.00;99657.28;181202;1263;43616;-60
2023/08/05 15:57:52;;;;;;;7.70;6.10;;;;;;;19.04;100.00;99665.39;181248;1263;43098;-61
2023/08/05 16:01:55;;;;;;;8.40;7.50;;;;;;;19.00;100.00;99667.77;181161;1263;43703;-60
2023/08/05 16:06:10;;;;;;;6.70;6.10;;;;;;;18.99;100.00;99678.29;181203;1263;58047;-61
2023/08/05 16:10:13;;;;;;;7.10;6.50;;;;;;;18.95;100.00;99673.14;181211;1263;43067;-61
2023/08/05 16:14:16;;;;;;;7.80;6.70;;;;;;;18.93;100.00;99669.96;181259;1263;43687;-61
2023/08/05 16:18:19;;;;;;;8.10;6.90;;;;;;;18.90;100.00;99672.73;181235;1263;43113;-60
2023/08/05 16:22:24;;;;;;;9.50;6.70;;;;;;;18.87;100.00;99680.52;181258;1263;43120;-60
2023/08/05 16:26:28;;;;;;;7.60;6.00;;;;;;;18.82;100.00;99692.35;181232;1263;58107;-60
2023/08/05 16:30:33;;;;;;;6.50;5.90;;;;;;;18.80;100.00;99710.11;181185;1263;43075;-59
2023/08/05 16:34:36;;;;;;;7.00;5.50;;;;;;;18.78;100.00;99721.46;181196;1263;43775;-59
2023/08/05 16:38:43;;;;;;;7.70;6.30;;;;;;;18.77;100.00;99719.34;181230;1263;43677;-59
2023/08/05 16:42:46;;;;;;;6.10;5.30;;;;;;;18.69;100.00;99701.95;181169;1263;43099;-59
2023/08/05 16:46:54;;;;;;;7.40;6.40;;;;;;;18.71;100.00;99692.89;181179;1263;57083;-59
2023/08/05 16:50:57;;;;;;;10.50;6.20;;;;;;;18.73;100.00;99686.89;181155;1263;43932;-59
2023/08/05 16:55:00;;;;;;;12.70;5.60;;;;;;;18.74;100.00;99680.50;181168;1263;43070;-59
2023/08/05 16:59:04;;;;;;;9.00;5.90;;;;;;;18.73;100.00;99674.13;181244;1263;43077;-59
2023/08/05 17:03:11;;;;;;;7.90;6.10;;;;;;;18.76;100.00;99690.60;181243;1262;43423;-59
2023/08/05 17:07:15;;;;;;;6.70;5.30;;;;;;;18.79;100.00;99712.86;181174;1262;58573;-59
2023/08/05 17:11:18;;;;;;;6.90;5.00;;;;;;;18.83;100.00;99717.76;181221;1262;43412;-60
2023/08/05 17:15:21;;;;;;;9.70;6.00;;;;;;;18.86;100.00;99726.71;181066;1263;214482;-59
2023/08/05 17:19:24;;;;;;;6.00;5.50;;;;;;;18.92;100.00;99721.41;181276;1263;43860;-59
2023/08/05 17:23:27;;;;;;;9.60;5.90;;;;;;;18.94;100.00;99693.39;181266;1262;43069;-61
2023/08/05 17:27:30;;;;;;;17.00;6.70;;;;;;;18.89;100.00;99648.51;181333;1262;58314;-59
2023/08/05 17:31:33;;;;;;;9.70;7.40;;;;;;;18.83;100.00;99645.60;181229;1262;43090;-60
2023/08/05 17:35:36;;;;;;;7.00;6.30;;;;;;;18.79;100.00;99668.38;181282;1262;42994;-59
2023/08/05 17:39:39;;;;;;;6.20;5.60;;;;;;;18.80;100.00;99663.52;181197;1262;44091;-60
2023/08/05 17:43:45;;;;;;;7.40;6.60;;;;;;;18.77;100.00;99654.64;181256;1262;43733;-60
2023/08/05 17:47:48;;;;;;;7.20;5.80;;;;;;;18.71;100.00;99634.52;181261;1262;58061;-60
2023/08/05 17:51:53;;;;;;;9.70;7.10;;;;;;;18.65;100.00;99626.48;181295;1262;43890;-60
2023/08/05 17:55:56;;;;;;;9.70;6.20;;;;;;;18.62;100.00;99620.33;181200;1262;43166;-60
2023/08/05 17:59:59;;;;;;;7.20;5.20;;;;;;;18.56;100.00;99623.14;181220;1262;43408;-60
2023/08/05 18:04:57;;;;;;;6.70;5.20;;;;;;;18.45;100.00;99612.36;181222;1262;43074;-60
2023/08/05 18:09:00;;;;;;;6.80;5.00;;;;;;;18.24;100.00;99598.02;181201;1262;57696;-59
2023/08/05 18:13:04;;;;;;;6.10;5.60;;;;;;;18.12;100.00;99597.66;181185;1262;43774;-60
2023/08/05 18:17:08;;;;;;;5.00;4.40;;;;;;;18.06;100.00;99629.52;181185;1262;43110;-61
2023/08/05 18:21:11;;;;;;;7.00;5.20;;;;;;;18.04;100.00;99647.46;181223;1262;43646;-60
2023/08/05 18:25:14;;;;;;;6.30;5.80;;;;;;;18.04;100.00;99647.70;181315;1262;43167;-61
2023/08/05 18:29:19;;;;;;;4.80;4.40;;;;;;;18.04;100.00;99662.11;181296;1262;58211;-60
2023/08/05 18:33:22;;;;;;;5.70;5.20;;;;;;;18.05;100.00;99675.17;181268;1262;43033;-59
2023/08/05 18:37:25;;;;;;;4.30;3.80;;;;;;;18.01;100.00;99681.74;181283;1263;43099;-59
2023/08/05 18:41:29;;;;;;;5.60;4.10;;;;;;;17.96;100.00;99681.29;181223;1262;44717;-60
2023/08/05 18:45:33;;;;;;;6.00;5.40;;;;;;;17.92;100.00;99675.04;181212;1262;42990;-60
2023/08/05 18:49:36;;;;;;;4.70;4.10;;;;;;;17.82;100.00;99667.34;181156;1263;58058;-59
2023/08/05 18:53:40;;;;;;;5.40;4.50;;;;;;;17.72;100.00;99664.36;181238;1262;43832;-59
2023/08/05 18:57:43;;;;;;;5.60;5.10;;;;;;;17.63;100.00;99654.75;181192;1262;43713;-60
2023/08/05 19:01:46;;;;;;;7.00;4.90;;;;;;;17.61;100.00;99652.73;181322;1262;43072;-59
2023/08/05 19:05:55;;;;;;;5.60;5.10;;;;;;;17.55;100.00;99654.48;181329;1261;43071;-59
2023/08/05 19:09:59;;;;;;;8.40;5.00;;;;;;;17.56;100.00;99637.77;181183;1263;57970;-59
2023/08/05 19:14:05;;;;;;;5.30;4.90;;;;;;;17.50;100.00;99628.23;181146;1263;43881;-60
2023/08/05 19:18:17;;;;;;;6.30;5.40;;;;;;;17.47;100.00;99611.06;181268;1262;43164;-58
2023/08/05 19:22:20;;;;;;;5.20;4.70;;;;;;;17.45;100.00;99604.13;181260;1262;43041;-59
2023/08/05 19:26:23;;;;;;;7.70;5.70;;;;;;;17.41;100.00;99610.83;181293;1262;43063;-58
2023/08/05 19:30:26;;;;;;;6.40;5.90;;;;;;;17.42;100.00;99612.13;181329;1262;58114;-60
2023/08/05 19:34:29;;;;;;;6.10;5.40;;;;;;;17.38;100.00;99613.52;181253;1262;43076;-58
2023/08/05 19:38:32;;;;;;;5.80;4.60;;;;;;;17.36;100.00;99606.42;181289;1262;43034;-58